Time;durP1;ratioP1;P1;durP2;ratioP2;P2;SDS_P1;SDS_P2;PMS_P1;PMS_P2;Temp;Humidity;BMP_temperature;BMP_pressure;BME280_temperature;BME280_humidity;BME280_pressure;Samples;Min_cycle;Max_cycle;Signal;HPM_P1;HPM_P2
2023/04/08 00:02:32;;;;;;;10.80;8.40;;;;;;;7.76;100.00;100117.27;110537;1274;22397;-67
2023/04/08 00:05:01;;;;;;;9.80;8.50;;;;;;;7.73;100.00;100113.30;110582;1274;22484;-67
2023/04/08 00:07:30;;;;;;;9.30;7.80;;;;;;;7.74;100.00;100114.25;110544;1274;23164;-67
2023/04/08 00:09:58;;;;;;;8.80;7.80;;;;;;;7.77;100.00;100106.29;110514;1274;22366;-67
2023/04/08 00:12:26;;;;;;;9.50;7.40;;;;;;;7.80;100.00;100103.79;107897;1274;25319;-67
2023/04/08 00:14:55;;;;;;;10.10;7.90;;;;;;;7.79;100.00;100106.00;107406;1274;25261;-66
2023/04/08 00:17:23;;;;;;;10.70;7.90;;;;;;;7.76;100.00;100101.28;107454;1274;23300;-66
2023/04/08 00:19:51;;;;;;;11.20;7.40;;;;;;;7.73;100.00;100103.98;107378;1274;25326;-67
2023/04/08 00:22:19;;;;;;;9.50;8.00;;;;;;;7.77;100.00;100107.16;107378;1274;25337;-67
2023/04/08 00:24:48;;;;;;;10.10;7.80;;;;;;;7.79;100.00;100108.92;107417;1274;24193;-67
2023/04/08 00:27:19;;;;;;;10.50;7.80;;;;;;;7.74;100.00;100105.85;107309;1274;25479;-66
2023/04/08 00:29:47;;;;;;;9.30;7.40;;;;;;;7.72;100.00;100106.14;107237;1274;22524;-65
2023/04/08 00:32:16;;;;;;;9.50;8.00;;;;;;;7.75;100.00;100111.22;107305;1274;25430;-66
2023/04/08 00:34:45;;;;;;;9.50;7.90;;;;;;;7.79;100.00;100112.13;107443;1274;22553;-66
2023/04/08 00:37:13;;;;;;;9.40;8.20;;;;;;;7.76;100.00;100111.78;107500;1274;22506;-66
2023/04/08 00:39:41;;;;;;;9.40;8.30;;;;;;;7.71;100.00;100115.40;107342;1274;22740;-66
2023/04/08 00:42:10;;;;;;;9.00;7.40;;;;;;;7.75;100.00;100114.17;107255;1274;25489;-66
2023/04/08 00:44:38;;;;;;;9.40;7.50;;;;;;;7.77;100.00;100116.58;107247;1274;22554;-66
2023/04/08 00:47:06;;;;;;;8.70;6.90;;;;;;;7.76;100.00;100118.90;107342;1274;25381;-66
2023/04/08 00:49:35;;;;;;;8.50;7.10;;;;;;;7.73;100.00;100122.63;107138;1274;26644;-66
2023/04/08 00:52:04;;;;;;;8.30;7.40;;;;;;;7.71;100.00;100122.98;107373;1274;24184;-67
2023/04/08 00:54:35;;;;;;;9.90;8.10;;;;;;;7.68;100.00;100126.34;107466;1274;25346;-66
2023/04/08 00:57:07;;;;;;;9.10;7.40;;;;;;;7.71;100.00;100125.40;107227;1274;25393;-66
2023/04/08 00:59:35;;;;;;;9.70;7.80;;;;;;;7.75;100.00;100123.59;107244;1274;22524;-67
2023/04/08 01:02:22;;;;;;;9.00;7.80;;;;;;;7.77;100.00;100120.33;107227;1274;23386;-66
2023/04/08 01:05:04;;;;;;;9.50;8.50;;;;;;;7.77;100.00;100126.38;107561;1274;25412;-66
2023/04/08 01:07:37;;;;;;;8.90;7.70;;;;;;;7.75;100.00;100132.54;107380;1274;25925;-66
2023/04/08 01:10:12;;;;;;;10.50;7.90;;;;;;;7.75;100.00;100134.44;107542;1274;22610;-66
2023/04/08 01:12:47;;;;;;;8.20;6.80;;;;;;;7.82;100.00;100134.40;107511;1274;25328;-66
2023/04/08 01:15:15;;;;;;;8.80;6.90;;;;;;;7.92;100.00;100137.17;107372;1274;25281;-66
2023/04/08 01:17:44;;;;;;;10.10;7.60;;;;;;;7.96;100.00;100131.72;107084;1274;22548;-66
2023/04/08 01:20:13;;;;;;;9.20;8.10;;;;;;;7.96;100.00;100132.04;107124;1274;25246;-66
2023/04/08 01:23:00;;;;;;;9.90;8.40;;;;;;;7.96;100.00;100137.36;107337;1274;22523;-66
2023/04/08 01:25:31;;;;;;;10.10;7.40;;;;;;;7.96;100.00;100140.87;109585;1274;22907;-67
2023/04/08 01:28:10;;;;;;;10.40;7.30;;;;;;;8.01;100.00;100137.49;110535;1274;22450;-67
2023/04/08 01:30:40;;;;;;;10.30;7.20;;;;;;;8.04;100.00;100137.66;110525;1274;23033;-67
2023/04/08 01:33:13;;;;;;;9.70;7.80;;;;;;;8.02;100.00;100136.42;110613;1274;22161;-66
2023/04/08 01:35:46;;;;;;;9.10;7.70;;;;;;;7.92;100.00;100135.23;110510;1274;22367;-67
2023/04/08 01:38:17;;;;;;;9.50;8.00;;;;;;;7.86;100.00;100136.44;110559;1274;22937;-67
2023/04/08 01:40:46;;;;;;;9.30;7.70;;;;;;;7.86;100.00;100138.32;110562;1274;22211;-67
2023/04/08 01:43:15;;;;;;;9.30;7.50;;;;;;;7.85;100.00;100143.13;110521;1274;22317;-67
2023/04/08 01:45:46;;;;;;;9.20;7.90;;;;;;;7.83;100.00;100143.47;110073;1274;22644;-65
2023/04/08 01:48:14;;;;;;;10.40;8.10;;;;;;;7.78;100.00;100145.22;107520;1274;22551;-66
2023/04/08 01:50:43;;;;;;;9.30;8.00;;;;;;;7.70;100.00;100145.71;107249;1274;22547;-66
2023/04/08 01:53:13;;;;;;;10.20;7.70;;;;;;;7.68;100.00;100144.39;107418;1274;22707;-66
2023/04/08 01:55:44;;;;;;;9.40;7.60;;;;;;;7.68;100.00;100144.02;107408;1274;25321;-66
2023/04/08 01:58:18;;;;;;;12.20;8.60;;;;;;;7.66;100.00;100142.61;107386;1260;22515;-66
2023/04/08 02:00:48;;;;;;;11.50;8.30;;;;;;;7.59;100.00;100142.10;107369;1274;25489;-66
2023/04/08 02:03:18;;;;;;;13.20;8.70;;;;;;;7.52;100.00;100142.34;107425;1274;26595;-65
2023/04/08 02:05:47;;;;;;;9.90;8.50;;;;;;;7.52;100.00;100142.41;107182;1274;22558;-66
2023/04/08 02:08:15;;;;;;;11.80;8.60;;;;;;;7.54;100.00;100136.70;107195;1274;22766;-66
2023/04/08 02:10:46;;;;;;;10.70;8.50;;;;;;;7.55;100.00;100136.39;107458;1274;25318;-67
2023/04/08 02:13:14;;;;;;;10.90;9.40;;;;;;;7.50;100.00;100143.23;107153;1274;23002;-66
2023/04/08 02:15:47;;;;;;;14.00;9.60;;;;;;;7.46;100.00;100144.20;107114;1274;24196;-66
2023/04/08 02:18:24;;;;;;;9.70;8.60;;;;;;;7.49;100.00;100140.18;107341;1274;22761;-66
2023/04/08 02:20:58;;;;;;;11.70;8.90;;;;;;;7.51;100.00;100142.72;107172;1274;25551;-66
2023/04/08 02:23:32;;;;;;;10.20;9.10;;;;;;;7.55;100.00;100141.10;107359;1274;25367;-66
2023/04/08 02:26:00;;;;;;;12.20;10.10;;;;;;;7.51;100.00;100141.94;107372;1274;22520;-67
2023/04/08 02:28:30;;;;;;;9.90;8.30;;;;;;;7.45;100.00;100137.06;107174;1274;23750;-66
2023/04/08 02:30:59;;;;;;;10.10;8.70;;;;;;;7.47;100.00;100134.02;107268;1274;22555;-66
2023/04/08 02:33:30;;;;;;;10.50;8.80;;;;;;;7.50;100.00;100136.79;107285;1274;25347;-67
2023/04/08 02:35:58;;;;;;;12.40;9.40;;;;;;;7.51;100.00;100137.18;107347;1274;23458;-67
2023/04/08 02:38:32;;;;;;;12.80;10.30;;;;;;;7.46;100.00;100138.66;107363;1274;25411;-67
2023/04/08 02:41:00;;;;;;;11.60;9.40;;;;;;;7.43;100.00;100145.65;107224;1274;23535;-68
2023/04/08 02:43:31;;;;;;;13.20;9.40;;;;;;;7.48;100.00;100144.42;107104;1274;25321;-67
2023/04/08 02:46:02;;;;;;;10.50;9.10;;;;;;;7.52;100.00;100142.84;107148;1274;22706;-67
2023/04/08 02:48:31;;;;;;;13.20;9.70;;;;;;;7.52;100.00;100140.50;107233;1274;22518;-68
2023/04/08 02:50:59;;;;;;;10.20;9.00;;;;;;;7.49;100.00;100140.94;107238;1274;23227;-67
2023/04/08 02:53:28;;;;;;;11.40;8.70;;;;;;;7.49;100.00;100144.14;107159;1274;23861;-66
2023/04/08 02:55:57;;;;;;;11.40;8.90;;;;;;;7.50;100.00;100141.98;107366;1270;24177;-67
2023/04/08 02:58:25;;;;;;;10.10;9.00;;;;;;;7.51;100.00;100143.90;107484;1274;22920;-66
2023/04/08 03:00:54;;;;;;;11.90;9.60;;;;;;;7.45;100.00;100143.24;107277;1274;22569;-68
2023/04/08 03:03:28;;;;;;;11.80;9.70;;;;;;;7.36;100.00;100141.84;107151;1274;24439;-66
2023/04/08 03:05:57;;;;;;;13.00;9.10;;;;;;;7.36;100.00;100146.97;107230;1274;22541;-66
2023/04/08 03:08:25;;;;;;;14.30;9.90;;;;;;;7.39;100.00;100148.00;107385;1274;22698;-67
2023/04/08 03:10:55;;;;;;;14.00;10.10;;;;;;;7.35;100.00;100144.79;107388;1274;25327;-66
2023/04/08 03:13:24;;;;;;;11.90;9.40;;;;;;;7.32;100.00;100144.07;107418;1274;24253;-66
2023/04/08 03:15:53;;;;;;;11.70;9.10;;;;;;;7.30;100.00;100142.19;107428;1274;24197;-66
2023/04/08 03:18:21;;;;;;;12.00;8.90;;;;;;;7.26;100.00;100145.13;110516;1274;22885;-66
2023/04/08 03:20:50;;;;;;;15.90;10.70;;;;;;;7.25;100.00;100139.76;110555;1274;22408;-67
2023/04/08 03:23:18;;;;;;;11.50;9.60;;;;;;;7.23;100.00;100143.66;110555;1274;22202;-65
2023/04/08 03:25:47;;;;;;;12.60;10.30;;;;;;;7.21;100.00;100143.25;110557;1274;22220;-66
2023/04/08 03:28:15;;;;;;;12.40;9.60;;;;;;;7.26;100.00;100144.15;110498;1274;22117;-66
2023/04/08 03:30:45;;;;;;;14.00;10.70;;;;;;;7.32;100.00;100143.26;110560;1274;22230;-66
2023/04/08 03:33:14;;;;;;;12.40;10.60;;;;;;;7.33;100.00;100145.17;110551;1274;22216;-66
2023/04/08 03:35:42;;;;;;;12.50;9.90;;;;;;;7.33;100.00;100144.91;110536;1274;23205;-66
2023/04/08 03:38:10;;;;;;;11.00;9.00;;;;;;;7.41;100.00;100147.82;110556;1274;23023;-66
2023/04/08 03:40:39;;;;;;;10.00;9.00;;;;;;;7.43;100.00;100147.11;110492;1274;23077;-66
2023/04/08 03:43:08;;;;;;;11.80;9.10;;;;;;;7.42;100.00;100148.43;107443;1274;23127;-65
2023/04/08 03:45:36;;;;;;;12.70;9.60;;;;;;;7.35;100.00;100152.65;107249;1274;25312;-65
2023/04/08 03:48:05;;;;;;;10.90;8.70;;;;;;;7.32;100.00;100150.69;107350;1274;25401;-65
2023/04/08 03:50:34;;;;;;;12.10;9.00;;;;;;;7.30;100.00;100153.67;107493;1274;25526;-66
2023/04/08 03:53:04;;;;;;;11.20;9.30;;;;;;;7.29;100.00;100154.42;107374;1274;22521;-65
2023/04/08 03:55:33;;;;;;;11.30;9.60;;;;;;;7.26;100.00;100151.20;107362;1274;23326;-65
2023/04/08 03:58:07;;;;;;;10.80;9.30;;;;;;;7.22;100.00;100156.48;107341;1274;25309;-66
2023/04/08 04:00:36;;;;;;;10.30;8.90;;;;;;;7.24;100.00;100160.85;107380;1274;25334;-66
2023/04/08 04:03:11;;;;;;;11.80;9.00;;;;;;;7.27;100.00;100163.67;107460;1274;24324;-66
2023/04/08 04:05:41;;;;;;;11.30;9.60;;;;;;;7.30;100.00;100170.55;107496;1274;23865;-65
2023/04/08 04:08:09;;;;;;;12.10;9.90;;;;;;;7.30;100.00;100176.30;107463;1274;23284;-65
2023/04/08 04:10:38;;;;;;;12.80;10.00;;;;;;;7.30;100.00;100178.30;107300;1274;25318;-65
2023/04/08 04:13:07;;;;;;;11.80;9.40;;;;;;;7.36;100.00;100183.64;107313;1274;24198;-65
2023/04/08 04:15:39;;;;;;;11.80;10.10;;;;;;;7.43;100.00;100192.88;107323;1274;25346;-65
2023/04/08 04:18:08;;;;;;;11.60;9.70;;;;;;;7.43;100.00;100193.66;107371;1274;22673;-66
2023/04/08 04:20:41;;;;;;;12.20;9.30;;;;;;;7.46;100.00;100195.34;107418;1274;22595;-65
2023/04/08 04:25:00;;;;;;;10.70;9.20;;;;;;;7.53;100.00;100200.17;103624;1305;545989;-66
2023/04/08 04:27:28;;;;;;;11.30;8.80;;;;;;;7.56;100.00;100205.98;105960;1288;23573;-66
2023/04/08 04:29:57;;;;;;;11.00;8.20;;;;;;;7.59;100.00;100206.69;106080;1288;23760;-66
2023/04/08 04:32:26;;;;;;;10.40;8.10;;;;;;;7.60;100.00;100206.15;105851;1288;25310;-66
2023/04/08 04:34:55;;;;;;;11.50;8.10;;;;;;;7.61;100.00;100207.71;106514;1288;23489;-66
2023/04/08 04:37:25;;;;;;;10.80;8.70;;;;;;;7.62;100.00;100212.11;106533;1288;25339;-67
2023/04/08 04:39:59;;;;;;;9.30;7.70;;;;;;;7.65;100.00;100213.69;106427;1286;25324;-67
2023/04/08 04:42:28;;;;;;;9.60;8.30;;;;;;;7.68;100.00;100211.10;106681;1286;25360;-66
2023/04/08 04:44:57;;;;;;;11.60;8.90;;;;;;;7.69;100.00;100214.52;106683;1286;25331;-66
2023/04/08 04:47:26;;;;;;;11.30;8.60;;;;;;;7.69;100.00;100214.59;106628;1286;24285;-66
2023/04/08 04:49:54;;;;;;;11.00;7.60;;;;;;;7.72;100.00;100217.96;106626;1286;22537;-66
2023/04/08 04:52:23;;;;;;;9.30;8.10;;;;;;;7.77;100.00;100226.94;106604;1286;25322;-66
2023/04/08 04:54:52;;;;;;;11.00;8.70;;;;;;;7.84;100.00;100231.15;106668;1286;22656;-66
2023/04/08 04:57:21;;;;;;;10.20;8.40;;;;;;;7.89;100.00;100233.04;109750;1286;23018;-67
2023/04/08 04:59:50;;;;;;;11.40;8.70;;;;;;;7.90;100.00;100230.39;109840;1286;23070;-67
2023/04/08 05:02:19;;;;;;;10.40;8.00;;;;;;;8.01;100.00;100237.86;109838;1286;22218;-64
2023/04/08 05:04:48;;;;;;;10.40;8.00;;;;;;;8.12;100.00;100239.31;109852;1286;23041;-64
2023/04/08 05:07:19;;;;;;;11.40;8.50;;;;;;;8.19;100.00;100245.61;109843;1286;23021;-64
2023/04/08 05:09:47;;;;;;;10.10;8.60;;;;;;;8.25;100.00;100246.12;109840;1286;22550;-65
2023/04/08 05:12:16;;;;;;;12.00;8.90;;;;;;;8.33;100.00;100243.14;109833;1286;22238;-64
2023/04/08 05:14:45;;;;;;;13.50;8.50;;;;;;;8.51;100.00;100241.92;109849;1286;22448;-64
2023/04/08 05:17:14;;;;;;;12.70;9.40;;;;;;;8.68;100.00;100240.79;109822;1286;22292;-64
2023/04/08 05:19:42;;;;;;;12.40;9.10;;;;;;;8.80;100.00;100245.23;109851;1286;22224;-64
2023/04/08 05:22:16;;;;;;;10.80;8.90;;;;;;;8.95;100.00;100250.29;109840;1286;22203;-64
2023/04/08 05:24:44;;;;;;;13.50;9.10;;;;;;;9.13;100.00;100251.86;109844;1286;22459;-64
2023/04/08 05:27:12;;;;;;;15.70;9.90;;;;;;;9.28;100.00;100249.57;109824;1286;22175;-65
2023/04/08 05:29:44;;;;;;;13.20;9.70;;;;;;;9.33;100.00;100255.45;109843;1286;22420;-65
2023/04/08 05:32:15;;;;;;;12.00;9.50;;;;;;;9.36;100.00;100258.00;107023;1283;27593;-65
2023/04/08 05:34:44;;;;;;;13.60;9.40;;;;;;;9.43;100.00;100257.45;106137;1283;25420;-66
2023/04/08 05:37:13;;;;;;;15.80;10.90;;;;;;;9.52;100.00;100262.98;106589;1283;25356;-66
2023/04/08 05:39:45;;;;;;;13.80;10.30;;;;;;;9.53;100.00;100264.63;106431;1283;25554;-65
2023/04/08 05:42:13;;;;;;;14.60;9.60;;;;;;;9.55;100.00;100260.31;106386;1283;23609;-65
2023/04/08 05:44:42;;;;;;;12.90;9.60;;;;;;;9.50;100.00;100254.60;106425;1283;25443;-65
2023/04/08 05:47:11;;;;;;;15.20;11.00;;;;;;;9.41;100.00;100254.14;106334;1283;24202;-65
2023/04/08 05:49:40;;;;;;;14.00;10.00;;;;;;;9.32;100.00;100257.88;106440;1283;22607;-65
2023/04/08 05:52:09;;;;;;;14.00;9.70;;;;;;;9.37;100.00;100266.21;106987;1278;25312;-65
2023/04/08 05:54:38;;;;;;;14.60;9.70;;;;;;;9.41;100.00;100270.40;106655;1278;23616;-65
2023/04/08 05:57:06;;;;;;;13.90;9.60;;;;;;;9.42;100.00;100272.92;106539;1278;25570;-65
2023/04/08 05:59:38;;;;;;;13.20;9.20;;;;;;;9.47;100.00;100274.30;106523;1278;25300;-65
2023/04/08 06:02:09;;;;;;;14.40;10.10;;;;;;;9.49;100.00;100276.59;106614;1278;25365;-65
2023/04/08 06:04:39;;;;;;;17.10;10.50;;;;;;;9.52;100.00;100272.30;107134;1278;22526;-66
2023/04/08 06:07:08;;;;;;;11.70;9.70;;;;;;;9.56;100.00;100270.16;107213;1278;25217;-66
2023/04/08 06:09:36;;;;;;;13.50;9.80;;;;;;;9.55;100.00;100273.91;106918;1278;25312;-65
2023/04/08 06:12:05;;;;;;;12.30;9.00;;;;;;;9.57;100.00;100275.98;106894;1278;25315;-66
2023/04/08 06:14:34;;;;;;;14.00;9.90;;;;;;;9.58;100.00;100278.83;107029;1278;25299;-65
2023/04/08 06:17:03;;;;;;;13.70;10.00;;;;;;;9.61;100.00;100270.35;106583;1278;22527;-66
2023/04/08 06:19:32;;;;;;;14.40;11.00;;;;;;;9.62;100.00;100274.42;107178;1278;22605;-65
2023/04/08 06:22:01;;;;;;;14.50;10.60;;;;;;;9.66;100.00;100276.05;107085;1278;25258;-66
2023/04/08 06:24:31;;;;;;;15.30;9.40;;;;;;;9.74;100.00;100278.55;107021;1278;24361;-66
2023/04/08 06:27:01;;;;;;;16.90;10.70;;;;;;;9.78;100.00;100277.83;107083;1278;25469;-65
2023/04/08 06:29:30;;;;;;;17.70;11.10;;;;;;;9.81;100.00;100276.52;107053;1278;23261;-65
2023/04/08 06:31:58;;;;;;;14.50;10.40;;;;;;;9.87;100.00;100280.23;107012;1278;22519;-65
2023/04/08 06:34:26;;;;;;;15.50;10.40;;;;;;;9.98;100.00;100285.80;107025;1278;23129;-66
2023/04/08 06:36:55;;;;;;;16.70;10.70;;;;;;;10.09;100.00;100288.64;107197;1278;25366;-66
2023/04/08 06:39:23;;;;;;;14.00;9.90;;;;;;;10.23;100.00;100295.42;107029;1278;25193;-65
2023/04/08 06:41:53;;;;;;;15.60;9.80;;;;;;;10.37;100.00;100296.60;107069;1278;22651;-66
2023/04/08 06:44:34;;;;;;;17.40;10.30;;;;;;;10.54;100.00;100296.89;107073;1278;22764;-66
2023/04/08 06:47:02;;;;;;;13.20;9.60;;;;;;;10.66;100.00;100294.42;107016;1278;26368;-66
2023/04/08 06:49:31;;;;;;;14.90;10.30;;;;;;;10.79;100.00;100297.05;110214;1278;23243;-66
2023/04/08 06:52:05;;;;;;;16.80;10.70;;;;;;;10.93;100.00;100295.74;110271;1278;22235;-66
2023/04/08 06:54:35;;;;;;;17.50;10.20;;;;;;;10.95;100.00;100291.30;110294;1278;22160;-66
2023/04/08 06:57:03;;;;;;;15.00;9.50;;;;;;;11.12;100.00;100290.98;110241;1278;22291;-67
2023/04/08 06:59:33;;;;;;;12.20;8.70;;;;;;;11.27;100.00;100294.15;110253;1278;22282;-66
2023/04/08 07:02:01;;;;;;;15.50;8.80;;;;;;;11.40;100.00;100295.10;110261;1278;22202;-67
2023/04/08 07:04:30;;;;;;;14.20;8.80;;;;;;;11.62;100.00;100296.27;110279;1278;22950;-67
2023/04/08 07:06:58;;;;;;;13.00;8.60;;;;;;;11.78;100.00;100295.05;108937;1278;25450;-66
2023/04/08 07:09:27;;;;;;;16.80;8.20;;;;;;;11.97;100.00;100298.18;107032;1278;25250;-66
2023/04/08 07:11:58;;;;;;;15.30;8.80;;;;;;;12.13;100.00;100294.69;107044;1278;26486;-66
2023/04/08 07:14:27;;;;;;;19.60;8.30;;;;;;;12.19;100.00;100293.07;107056;1278;24054;-66
2023/04/08 07:16:55;;;;;;;16.80;8.80;;;;;;;12.25;100.00;100289.38;106946;1278;23120;-66
2023/04/08 07:19:24;;;;;;;15.50;9.10;;;;;;;12.27;100.00;100291.40;107095;1278;25509;-66
2023/04/08 07:21:53;;;;;;;13.00;8.60;;;;;;;12.30;100.00;100292.55;107062;1278;25341;-66
2023/04/08 07:24:21;;;;;;;13.80;8.10;;;;;;;12.46;100.00;100290.34;107142;1278;23700;-66
2023/04/08 07:26:50;;;;;;;13.30;8.00;;;;;;;12.57;100.00;100290.41;107095;1278;24356;-66
2023/04/08 07:29:21;;;;;;;15.30;8.80;;;;;;;12.60;100.00;100285.35;107223;1278;25303;-66
2023/04/08 07:31:50;;;;;;;16.40;9.80;;;;;;;12.63;100.00;100283.60;107053;1278;23325;-66
2023/04/08 07:34:19;;;;;;;15.70;9.00;;;;;;;12.64;100.00;100279.89;106962;1278;25360;-66
2023/04/08 07:36:47;;;;;;;13.40;8.70;;;;;;;12.67;100.00;100280.55;107009;1278;25240;-66
2023/04/08 07:39:16;;;;;;;16.40;9.00;;;;;;;12.76;100.00;100281.46;107104;1278;23393;-66
2023/04/08 07:41:44;;;;;;;14.00;9.00;;;;;;;12.86;100.00;100283.00;107132;1278;22516;-66
2023/04/08 07:44:15;;;;;;;14.10;8.30;;;;;;;12.84;100.00;100283.39;107102;1278;25321;-66
2023/04/08 07:46:45;;;;;;;14.10;8.80;;;;;;;12.89;100.00;100277.15;107026;1278;22550;-67
2023/04/08 07:49:13;;;;;;;14.70;9.80;;;;;;;12.97;100.00;100274.69;106919;1278;25217;-67
2023/04/08 07:51:41;;;;;;;13.90;8.80;;;;;;;12.96;100.00;100268.97;107036;1278;22625;-67
2023/04/08 07:54:11;;;;;;;17.60;9.20;;;;;;;12.98;100.00;100268.63;107061;1278;22618;-67
2023/04/08 07:56:40;;;;;;;15.20;8.40;;;;;;;13.03;100.00;100270.55;107084;1278;22560;-67
2023/04/08 07:59:10;;;;;;;13.90;8.10;;;;;;;13.18;100.00;100261.09;107012;1278;25489;-67
2023/04/08 08:01:39;;;;;;;13.50;7.70;;;;;;;13.40;100.00;100268.38;107059;1278;24266;-67
2023/04/08 08:04:08;;;;;;;14.20;8.10;;;;;;;13.52;100.00;100267.09;107097;1278;24331;-67
2023/04/08 08:06:39;;;;;;;16.60;8.10;;;;;;;13.56;100.00;100259.19;110238;1278;23009;-68
2023/04/08 08:09:08;;;;;;;12.00;7.70;;;;;;;13.53;100.00;100252.98;110269;1278;22228;-68
2023/04/08 08:11:36;;;;;;;15.70;7.50;;;;;;;13.53;100.00;100250.00;110094;1275;22558;-67
2023/04/08 08:14:06;;;;;;;14.60;7.60;;;;;;;13.61;100.00;100249.27;110463;1275;22996;-67
2023/04/08 08:16:37;;;;;;;13.80;8.00;;;;;;;13.79;100.00;100248.86;110491;1275;22205;-67
2023/04/08 08:19:07;;;;;;;15.90;7.50;;;;;;;13.98;100.00;100243.25;110521;1275;22240;-68
2023/04/08 08:21:40;;;;;;;16.70;8.30;;;;;;;14.12;100.00;100241.48;110506;1275;22199;-68
2023/04/08 08:24:09;;;;;;;15.50;7.30;;;;;;;14.14;100.00;100234.77;110413;1275;22655;-68
2023/04/08 08:26:38;;;;;;;15.10;6.70;;;;;;;14.30;100.00;100232.23;110494;1275;22271;-68
2023/04/08 08:29:07;;;;;;;14.40;6.20;;;;;;;14.44;100.00;100229.09;110524;1275;22971;-68
2023/04/08 08:31:37;;;;;;;17.60;8.20;;;;;;;14.57;100.00;100223.60;107510;1275;22527;-67
2023/04/08 08:34:05;;;;;;;41.90;28.10;;;;;;;14.73;100.00;100221.17;107248;1275;25312;-67
2023/04/08 08:36:34;;;;;;;37.10;28.60;;;;;;;14.81;100.00;100208.17;107159;1275;25299;-66
2023/04/08 08:39:02;;;;;;;40.70;31.10;;;;;;;14.85;100.00;100203.10;107164;1275;22539;-67
2023/04/08 08:41:35;;;;;;;15.90;6.70;;;;;;;14.86;100.00;100197.87;107394;1275;25342;-67
2023/04/08 08:44:07;;;;;;;22.40;11.50;;;;;;;14.92;100.00;100190.67;107429;1275;23504;-67
2023/04/08 08:46:35;;;;;;;15.20;6.20;;;;;;;15.14;100.00;100184.92;107398;1275;25581;-67
2023/04/08 08:49:04;;;;;;;14.00;5.70;;;;;;;15.18;100.00;100179.93;107396;1275;25235;-66
2023/04/08 08:51:33;;;;;;;15.60;6.90;;;;;;;15.03;100.00;100176.81;107440;1275;22568;-66
2023/04/08 08:54:03;;;;;;;18.20;7.00;;;;;;;14.96;100.00;100177.76;107162;1275;26672;-66
2023/04/08 08:56:32;;;;;;;18.10;6.20;;;;;;;15.01;100.00;100182.21;107309;1275;26227;-66
2023/04/08 08:59:00;;;;;;;14.20;7.00;;;;;;;15.21;100.00;100185.27;107248;1275;22740;-67
2023/04/08 09:01:39;;;;;;;13.20;6.00;;;;;;;15.36;100.00;100178.84;107344;1275;25333;-66
2023/04/08 09:04:18;;;;;;;15.40;6.20;;;;;;;15.48;100.00;100180.91;107518;1275;23264;-67
2023/04/08 09:06:50;;;;;;;13.90;7.10;;;;;;;15.62;100.00;100175.98;107512;1275;25347;-67
2023/04/08 09:09:19;;;;;;;17.00;7.20;;;;;;;15.82;100.00;100176.71;107447;1275;22517;-67
2023/04/08 09:11:47;;;;;;;14.30;6.60;;;;;;;16.03;100.00;100169.42;107513;1275;25782;-67
2023/04/08 09:14:18;;;;;;;17.90;6.90;;;;;;;16.22;100.00;100165.11;107394;1275;25478;-66
2023/04/08 09:16:47;;;;;;;13.90;6.30;;;;;;;16.28;100.00;100159.98;107316;1275;26483;-66
2023/04/08 09:19:16;;;;;;;21.40;7.40;;;;;;;16.44;100.00;100162.40;107379;1275;25386;-67
2023/04/08 09:22:03;;;;;;;13.50;6.60;;;;;;;16.64;100.00;100159.14;107188;1275;26685;-67
2023/04/08 09:24:31;;;;;;;14.50;6.20;;;;;;;16.88;100.00;100154.85;107049;1275;25449;-67
2023/04/08 09:27:06;;;;;;;13.70;5.70;;;;;;;17.16;100.00;100159.15;107203;1275;25336;-67
2023/04/08 09:29:36;;;;;;;16.20;7.00;;;;;;;17.40;100.00;100152.13;107312;1275;25327;-67
2023/04/08 09:32:07;;;;;;;16.60;7.20;;;;;;;17.54;100.00;100142.05;107330;1275;23301;-67
2023/04/08 09:34:38;;;;;;;16.00;6.30;;;;;;;17.60;100.00;100141.60;107359;1275;25322;-67
2023/04/08 09:37:07;;;;;;;16.20;6.90;;;;;;;17.58;100.00;100131.56;107331;1275;25409;-67
2023/04/08 09:39:37;;;;;;;17.30;6.80;;;;;;;17.56;100.00;100127.87;107337;1275;22533;-67
2023/04/08 09:42:07;;;;;;;17.90;7.60;;;;;;;17.42;100.00;100127.86;107361;1275;22531;-66
2023/04/08 09:44:35;;;;;;;19.60;7.00;;;;;;;17.31;100.00;100127.70;107364;1275;23270;-66
2023/04/08 09:47:17;;;;;;;13.60;5.80;;;;;;;17.27;100.00;100125.69;107140;1275;22590;-66
2023/04/08 09:49:49;;;;;;;15.40;6.70;;;;;;;17.32;100.00;100134.50;107370;1275;26590;-66
2023/04/08 09:52:44;;;;;;;15.00;6.30;;;;;;;17.36;100.00;100139.34;110492;1275;23099;-67
2023/04/08 09:55:13;;;;;;;13.50;6.60;;;;;;;17.30;100.00;100138.02;110413;1275;22392;-67
2023/04/08 09:58:01;;;;;;;18.60;8.20;;;;;;;17.20;100.00;100143.77;109707;1275;22641;-66
2023/04/08 10:00:39;;;;;;;14.60;7.20;;;;;;;17.16;100.00;100148.03;107348;1275;22639;-66
2023/04/08 10:03:38;;;;;;;15.40;7.00;;;;;;;17.16;100.00;100147.12;107379;1275;26563;-66
2023/04/08 10:06:07;;;;;;;18.90;6.90;;;;;;;17.18;100.00;100148.73;106932;1275;25386;-66
2023/04/08 10:08:37;;;;;;;18.40;7.50;;;;;;;17.11;100.00;100149.77;107354;1275;25318;-67
2023/04/08 10:11:06;;;;;;;15.70;7.50;;;;;;;17.14;100.00;100148.08;107140;1275;23698;-66
2023/04/08 10:13:40;;;;;;;16.90;6.90;;;;;;;17.17;100.00;100147.73;107065;1275;23265;-66
2023/04/08 10:16:23;;;;;;;16.40;6.90;;;;;;;17.06;100.00;100144.33;107302;1275;25312;-66
2023/04/08 10:18:55;;;;;;;14.80;7.20;;;;;;;16.96;100.00;100141.55;107235;1275;22576;-66
2023/04/08 10:21:34;;;;;;;21.70;8.10;;;;;;;16.80;100.00;100137.46;107144;1275;25366;-66
2023/04/08 10:24:05;;;;;;;14.90;6.40;;;;;;;16.77;100.00;100144.33;107208;1275;24729;-67
2023/04/08 10:26:41;;;;;;;16.60;6.10;;;;;;;16.86;100.00;100142.17;107138;1275;25638;-66
2023/04/08 10:29:16;;;;;;;23.10;8.90;;;;;;;16.93;100.00;100138.42;107191;1275;25265;-66
2023/04/08 10:31:45;;;;;;;13.00;5.40;;;;;;;17.03;100.00;100132.95;107063;1275;23336;-66
2023/04/08 10:34:17;;;;;;;14.50;6.20;;;;;;;17.18;100.00;100130.83;107182;1275;23042;-66
2023/04/08 10:36:46;;;;;;;14.30;6.00;;;;;;;17.23;100.00;100125.40;107288;1275;25500;-66
2023/04/08 10:39:17;;;;;;;22.00;12.80;;;;;;;17.14;100.00;100121.49;107424;1275;25370;-67
2023/04/08 10:41:47;;;;;;;15.20;5.30;;;;;;;17.07;100.00;100119.98;107438;1275;22537;-66
2023/04/08 10:44:25;;;;;;;18.00;6.00;;;;;;;16.96;100.00;100116.74;107453;1275;26464;-66
2023/04/08 10:46:53;;;;;;;13.60;6.00;;;;;;;16.86;100.00;100119.79;107477;1275;22595;-66
2023/04/08 10:49:22;;;;;;;12.80;5.40;;;;;;;16.82;100.00;100123.01;107476;1275;23391;-67
2023/04/08 10:51:55;;;;;;;16.60;5.70;;;;;;;16.74;100.00;100119.15;107433;1275;25312;-66
2023/04/08 10:54:24;;;;;;;16.40;6.10;;;;;;;16.70;100.00;100122.35;107407;1275;26464;-66
2023/04/08 10:56:52;;;;;;;13.10;6.40;;;;;;;16.80;100.00;100125.95;107279;1275;25335;-66
2023/04/08 10:59:29;;;;;;;14.70;6.30;;;;;;;16.89;100.00;100129.08;107217;1275;25472;-66
2023/04/08 11:01:59;;;;;;;17.80;5.40;;;;;;;16.89;100.00;100123.54;107235;1275;22535;-66
2023/04/08 11:04:28;;;;;;;20.00;6.50;;;;;;;16.83;100.00;100119.63;107441;1275;26938;-67
2023/04/08 11:06:57;;;;;;;14.40;5.50;;;;;;;16.79;100.00;100113.55;107418;1275;23613;-67
2023/04/08 11:09:26;;;;;;;16.00;7.00;;;;;;;16.82;100.00;100114.44;107170;1275;24919;-67
2023/04/08 11:11:55;;;;;;;12.00;4.20;;;;;;;16.88;100.00;100111.08;107115;1275;25321;-66
2023/04/08 11:14:27;;;;;;;10.50;4.10;;;;;;;17.00;100.00;100100.13;107031;1275;25343;-67
2023/04/08 11:16:55;;;;;;;14.00;4.00;;;;;;;17.12;100.00;100086.89;107144;1275;22967;-66
2023/04/08 11:19:23;;;;;;;12.10;3.70;;;;;;;17.18;100.00;100076.48;107130;1275;25232;-66
2023/04/08 11:21:52;;;;;;;15.50;4.40;;;;;;;17.13;100.00;100069.21;107369;1275;25230;-66
2023/04/08 11:24:21;;;;;;;11.90;4.00;;;;;;;17.14;100.00;100070.33;107407;1275;25418;-67